Time;durP1;ratioP1;P1;durP2;ratioP2;P2;SDS_P1;SDS_P2;PMS_P1;PMS_P2;Temp;Humidity;BMP_temperature;BMP_pressure;BME280_temperature;BME280_humidity;BME280_pressure;Samples;Min_cycle;Max_cycle;Signal;HPM_P1;HPM_P2
2021/12/28 00:01:18;;;;;;;6.07;1.53;;;8.90;99.90;;;;;;5085496;28;20457;-90
2021/12/28 00:03:46;;;;;;;4.07;1.57;;;8.90;99.90;;;;;;5096460;28;20457;-90
2021/12/28 00:06:16;;;;;;;4.87;2.17;;;9.00;99.90;;;;;;5101048;28;20474;-91
2021/12/28 00:08:43;;;;;;;4.17;1.40;;;9.00;99.90;;;;;;5099305;28;20519;-90
2021/12/28 00:11:11;;;;;;;4.10;1.87;;;9.10;99.90;;;;;;5098576;28;20482;-92
2021/12/28 00:13:40;;;;;;;6.60;1.80;;;9.00;99.90;;;;;;5086665;28;20436;-91
2021/12/28 00:16:32;;;;;;;5.80;1.57;;;9.00;99.90;;;;;;5081976;28;20451;-89
2021/12/28 00:19:00;;;;;;;7.63;1.97;;;9.10;99.90;;;;;;5081075;28;20837;-90
2021/12/28 00:21:29;;;;;;;4.17;1.87;;;9.10;99.90;;;;;;5079720;28;20812;-89
2021/12/28 00:23:57;;;;;;;8.10;2.20;;;9.10;99.90;;;;;;5078355;28;20837;-90
2021/12/28 00:26:24;;;;;;;8.60;2.33;;;9.30;99.90;;;;;;5075444;28;20468;-90
2021/12/28 00:28:51;;;;;;;4.47;2.03;;;9.30;99.90;;;;;;5078276;28;20447;-90
2021/12/28 00:31:19;;;;;;;8.97;2.20;;;9.40;99.90;;;;;;5079028;28;20472;-89
2021/12/28 00:33:46;;;;;;;5.47;1.60;;;9.40;99.90;;;;;;5076375;28;20451;-89
2021/12/28 00:36:14;;;;;;;6.00;2.03;;;9.50;99.90;;;;;;5078148;28;20460;-89
2021/12/28 00:38:43;;;;;;;3.50;2.03;;;9.50;99.90;;;;;;5080203;28;20450;-89
2021/12/28 00:41:10;;;;;;;6.53;1.57;;;9.50;99.90;;;;;;5079455;28;20441;-89
2021/12/28 00:43:38;;;;;;;6.10;2.03;;;9.50;99.90;;;;;;5081561;28;20447;-89
2021/12/28 00:46:07;;;;;;;16.30;2.90;;;9.60;99.90;;;;;;5084113;28;20479;-89
2021/12/28 00:48:34;;;;;;;6.50;2.17;;;9.60;99.90;;;;;;5079046;28;20451;-89
2021/12/28 00:51:01;;;;;;;10.40;3.03;;;9.60;99.90;;;;;;5080487;28;20482;-87
2021/12/28 00:53:28;;;;;;;13.50;2.70;;;9.60;99.90;;;;;;5087047;28;20503;-89
2021/12/28 00:55:56;;;;;;;7.23;2.60;;;9.50;99.90;;;;;;5079355;28;20467;-89
2021/12/28 00:58:23;;;;;;;6.20;2.40;;;9.50;99.90;;;;;;5078819;28;20446;-89
2021/12/28 01:00:52;;;;;;;9.87;2.07;;;9.60;99.90;;;;;;5087367;28;20943;-89
2021/12/28 01:03:19;;;;;;;4.97;1.50;;;9.60;99.90;;;;;;5079542;28;20446;-90
2021/12/28 01:05:46;;;;;;;6.53;1.87;;;9.50;99.90;;;;;;5075728;28;20537;-89
2021/12/28 01:08:13;;;;;;;8.57;2.10;;;9.50;99.90;;;;;;5073109;28;20440;-89
2021/12/28 01:10:44;;;;;;;6.47;2.00;;;9.50;99.90;;;;;;5090979;28;20489;-89
2021/12/28 01:13:14;;;;;;;6.13;2.03;;;9.40;99.90;;;;;;5076194;28;20443;-90
2021/12/28 01:15:41;;;;;;;2.70;1.63;;;9.30;99.90;;;;;;5074173;28;20475;-90
2021/12/28 01:18:08;;;;;;;3.40;1.73;;;9.30;99.90;;;;;;5076520;28;20447;-90
2021/12/28 01:20:35;;;;;;;7.13;1.90;;;9.30;99.90;;;;;;5077321;28;20455;-89
2021/12/28 01:23:03;;;;;;;3.60;2.17;;;9.30;99.90;;;;;;5075941;28;20463;-89
2021/12/28 01:25:30;;;;;;;6.23;1.83;;;9.10;99.90;;;;;;5077266;28;20452;-86
2021/12/28 01:27:57;;;;;;;21.13;4.40;;;9.10;99.90;;;;;;5076523;28;20947;-89
2021/12/28 01:30:28;;;;;;;8.27;2.40;;;9.10;99.90;;;;;;5083507;28;20443;-90
2021/12/28 01:32:57;;;;;;;4.53;2.67;;;9.00;99.90;;;;;;5075067;28;20459;-89
2021/12/28 01:35:24;;;;;;;8.73;2.00;;;8.90;99.90;;;;;;5075165;28;20476;-89
2021/12/28 01:37:51;;;;;;;3.63;2.00;;;8.80;99.90;;;;;;5076555;28;20458;-89
2021/12/28 01:40:21;;;;;;;4.73;2.17;;;8.80;99.90;;;;;;5090253;28;20432;-88
2021/12/28 01:42:55;;;;;;;4.00;2.40;;;8.70;99.90;;;;;;5089350;28;20442;-88
2021/12/28 01:45:37;;;;;;;7.10;2.07;;;8.60;99.90;;;;;;5088796;28;20454;-89
2021/12/28 01:48:05;;;;;;;4.40;2.10;;;8.60;99.90;;;;;;5072918;28;20455;-90
2021/12/28 01:50:33;;;;;;;3.97;2.03;;;8.60;99.90;;;;;;5088162;28;20428;-87
2021/12/28 01:52:59;;;;;;;3.97;1.90;;;8.50;99.90;;;;;;5089657;28;20447;-89
2021/12/28 01:55:27;;;;;;;7.90;2.03;;;8.50;99.90;;;;;;5081869;28;20460;-88
2021/12/28 01:57:54;;;;;;;2.67;1.57;;;8.50;99.90;;;;;;5084811;28;20443;-88
2021/12/28 02:00:20;;;;;;;2.73;1.80;;;8.60;99.90;;;;;;5080943;28;20435;-89
2021/12/28 02:02:49;;;;;;;5.13;2.10;;;8.50;99.90;;;;;;5074321;28;20444;-89
2021/12/28 02:05:15;;;;;;;6.43;1.83;;;8.50;99.90;;;;;;5075116;28;20466;-89
2021/12/28 02:07:42;;;;;;;3.50;1.67;;;8.50;99.90;;;;;;5076104;28;20440;-89
2021/12/28 02:10:10;;;;;;;5.83;2.30;;;8.50;99.90;;;;;;5075533;28;20456;-89
2021/12/28 02:12:37;;;;;;;3.50;1.77;;;8.40;99.90;;;;;;5072426;28;20471;-89
2021/12/28 02:15:12;;;;;;;4.30;2.40;;;8.40;99.90;;;;;;5074020;28;20464;-89
2021/12/28 02:17:39;;;;;;;5.57;2.70;;;8.30;99.90;;;;;;5072632;28;20496;-89
2021/12/28 02:20:09;;;;;;;5.53;2.50;;;8.30;99.90;;;;;;5074503;28;20450;-89
2021/12/28 02:22:35;;;;;;;3.10;2.50;;;8.20;99.90;;;;;;5085887;28;20428;-89
2021/12/28 02:25:03;;;;;;;4.20;2.13;;;8.20;99.90;;;;;;5083197;28;20459;-89
2021/12/28 02:27:30;;;;;;;4.47;2.87;;;8.10;99.90;;;;;;5076099;28;20875;-90
2021/12/28 02:29:58;;;;;;;3.67;1.90;;;8.10;99.90;;;;;;5080586;28;20939;-90
2021/12/28 02:32:27;;;;;;;11.10;3.10;;;8.10;99.90;;;;;;5083055;28;20475;-88
2021/12/28 02:34:55;;;;;;;6.60;2.80;;;8.10;99.90;;;;;;5090898;28;20452;-90
2021/12/28 02:37:23;;;;;;;4.10;2.17;;;8.10;99.90;;;;;;5085255;28;20851;-90
2021/12/28 02:39:50;;;;;;;4.67;3.03;;;8.10;99.90;;;;;;5074782;28;20948;-89
2021/12/28 02:42:17;;;;;;;5.03;2.57;;;8.10;99.90;;;;;;5075022;28;20448;-89
2021/12/28 02:44:44;;;;;;;6.93;2.70;;;8.10;99.90;;;;;;5074285;28;20489;-89
2021/12/28 02:47:16;;;;;;;6.60;3.77;;;8.10;99.90;;;;;;5075441;28;20451;-90
2021/12/28 02:49:42;;;;;;;4.33;2.77;;;8.00;99.90;;;;;;5078551;28;20453;-90
2021/12/28 02:52:09;;;;;;;4.10;2.77;;;8.00;99.90;;;;;;5075762;28;21002;-88
2021/12/28 02:54:39;;;;;;;5.17;2.80;;;8.00;99.90;;;;;;5077790;28;20443;-89
2021/12/28 02:57:06;;;;;;;5.80;2.63;;;8.00;99.90;;;;;;5074922;28;20944;-89
2021/12/28 02:59:33;;;;;;;4.63;2.33;;;8.00;99.90;;;;;;5083713;28;20446;-89
2021/12/28 03:02:00;;;;;;;6.67;2.10;;;8.00;99.90;;;;;;5077014;28;20943;-89
2021/12/28 03:04:27;;;;;;;10.87;3.50;;;8.00;99.90;;;;;;5073782;28;20435;-91
2021/12/28 03:06:55;;;;;;;7.20;2.10;;;8.00;99.90;;;;;;5075282;28;20943;-81
2021/12/28 03:09:23;;;;;;;4.90;2.50;;;8.10;99.90;;;;;;5074946;28;20467;-80
2021/12/28 03:11:51;;;;;;;6.30;2.30;;;8.20;99.90;;;;;;5077641;28;20463;-80
2021/12/28 03:14:18;;;;;;;8.47;2.80;;;8.20;99.90;;;;;;5084977;28;20450;-80
2021/12/28 03:16:45;;;;;;;5.57;2.23;;;8.20;99.90;;;;;;5079898;28;20500;-81
2021/12/28 03:19:12;;;;;;;9.47;2.60;;;8.20;99.90;;;;;;5087990;28;20436;-91
2021/12/28 03:21:40;;;;;;;8.97;3.70;;;8.20;99.90;;;;;;5079175;28;20479;-90
2021/12/28 03:24:08;;;;;;;11.83;2.53;;;8.20;99.90;;;;;;5081470;28;20451;-91
2021/12/28 03:26:35;;;;;;;7.33;2.80;;;8.20;99.90;;;;;;5079402;28;20485;-91
2021/12/28 03:29:04;;;;;;;7.10;2.73;;;8.20;99.90;;;;;;5081475;28;20439;-92
2021/12/28 03:31:31;;;;;;;6.43;2.37;;;8.20;99.90;;;;;;5083580;28;20504;-91
2021/12/28 03:34:00;;;;;;;4.53;2.57;;;8.20;99.90;;;;;;5082632;28;20467;-91
2021/12/28 03:36:29;;;;;;;10.90;3.37;;;8.20;99.90;;;;;;5106610;27;20530;-91
2021/12/28 03:38:57;;;;;;;8.03;2.67;;;8.20;99.90;;;;;;5093437;27;20434;-92
2021/12/28 03:41:29;;;;;;;7.03;2.50;;;8.20;99.90;;;;;;5084904;28;20463;-91
2021/12/28 03:43:56;;;;;;;5.53;2.97;;;8.30;99.90;;;;;;5089414;28;20428;-91
2021/12/28 03:46:26;;;;;;;5.13;2.33;;;8.30;99.90;;;;;;5077032;28;20475;-91
2021/12/28 03:48:54;;;;;;;4.47;2.57;;;8.30;99.90;;;;;;5078374;28;20448;-92
2021/12/28 03:51:21;;;;;;;8.67;3.07;;;8.30;99.90;;;;;;5083761;28;20444;-92
2021/12/28 03:53:49;;;;;;;10.93;2.67;;;8.30;99.90;;;;;;5087980;28;20785;-91
2021/12/28 03:56:18;;;;;;;6.17;2.47;;;8.30;99.90;;;;;;5074858;28;20456;-90
2021/12/28 03:58:46;;;;;;;7.53;2.93;;;8.30;99.90;;;;;;5091075;27;20887;-91
2021/12/28 04:01:16;;;;;;;5.23;2.90;;;8.40;99.90;;;;;;5081504;28;20439;-91
2021/12/28 04:03:45;;;;;;;7.10;2.50;;;8.40;99.90;;;;;;5090540;27;20414;-89
2021/12/28 04:06:11;;;;;;;6.13;2.70;;;8.50;99.90;;;;;;5097439;27;20478;-89
2021/12/28 04:08:40;;;;;;;7.27;2.80;;;8.50;99.90;;;;;;5089260;28;20512;-90
2021/12/28 04:11:25;;;;;;;7.73;3.13;;;8.50;99.90;;;;;;5098383;27;20446;-90
2021/12/28 04:13:54;;;;;;;7.73;2.70;;;8.50;99.90;;;;;;5080912;28;20538;-91
2021/12/28 04:16:22;;;;;;;4.83;2.10;;;8.50;99.90;;;;;;5079696;28;20827;-91
2021/12/28 07:16:07;;;;;;;2.47;2.23;;;8.90;99.90;;;;;;5112952;23;20500;-88
2021/12/28 07:21:10;;;;;;;2.47;1.40;;;9.00;99.90;;;;;;5078015;23;20489;-91
2021/12/28 07:23:37;;;;;;;1.10;1.00;;;9.00;99.90;;;;;;5029132;28;20442;-91
2021/12/28 07:26:04;;;;;;;1.07;0.70;;;9.10;99.90;;;;;;5038160;28;20465;-89
2021/12/28 07:28:31;;;;;;;0.83;0.80;;;9.30;99.90;;;;;;5036843;28;20475;-91
2021/12/28 07:30:58;;;;;;;1.53;1.00;;;9.40;99.90;;;;;;5035092;28;20464;-91
2021/12/28 07:33:27;;;;;;;1.30;1.00;;;9.40;99.90;;;;;;5029568;28;20481;-90
2021/12/28 07:35:53;;;;;;;1.00;0.70;;;9.50;99.90;;;;;;5028022;28;21005;-91
2021/12/28 07:38:20;;;;;;;0.70;0.70;;;9.60;99.90;;;;;;5034781;28;20441;-92
2021/12/28 07:40:47;;;;;;;1.73;1.00;;;9.70;99.90;;;;;;5029050;28;20451;-90
2021/12/28 07:43:14;;;;;;;2.00;0.87;;;9.80;99.90;;;;;;5033810;28;20433;-92
2021/12/28 07:45:41;;;;;;;2.90;0.80;;;9.80;99.90;;;;;;5033220;28;20463;-91
2021/12/28 07:48:08;;;;;;;0.90;0.60;;;9.80;99.90;;;;;;5045082;28;20453;-91
2021/12/28 07:50:37;;;;;;;0.93;0.60;;;9.80;99.90;;;;;;5042730;28;20445;-92
2021/12/28 07:53:04;;;;;;;0.60;0.53;;;9.90;99.90;;;;;;5031242;28;20551;-91
2021/12/28 07:55:31;;;;;;;1.07;0.90;;;10.00;99.90;;;;;;5025886;28;20473;-91
2021/12/28 07:57:58;;;;;;;0.77;0.77;;;10.00;99.90;;;;;;5028093;28;20478;-92
2021/12/28 08:00:28;;;;;;;1.60;0.93;;;10.20;99.90;;;;;;5030885;28;20458;-92
2021/12/28 08:02:55;;;;;;;1.20;0.73;;;10.20;99.90;;;;;;5034424;28;20457;-90
2021/12/28 08:05:23;;;;;;;0.80;0.80;;;10.30;99.90;;;;;;5039840;28;20465;-90
2021/12/28 08:07:51;;;;;;;1.40;1.00;;;10.30;99.90;;;;;;5044498;28;20506;-92
2021/12/28 08:10:18;;;;;;;1.83;0.87;;;10.40;99.90;;;;;;5045678;28;20434;-91
2021/12/28 08:12:47;;;;;;;2.10;0.60;;;10.40;99.90;;;;;;5041609;28;20506;-92
2021/12/28 08:15:13;;;;;;;1.60;0.73;;;10.40;99.90;;;;;;5034148;28;20533;-92
2021/12/28 08:17:40;;;;;;;0.97;0.80;;;10.40;99.90;;;;;;5046018;28;20456;-91
2021/12/28 08:20:09;;;;;;;1.20;0.60;;;10.30;99.90;;;;;;5022306;28;20455;-91
2021/12/28 08:22:37;;;;;;;0.90;0.50;;;10.20;99.90;;;;;;5036565;28;20446;-91
2021/12/28 08:25:06;;;;;;;0.70;0.60;;;10.10;99.90;;;;;;5028262;28;20606;-92
2021/12/28 08:27:34;;;;;;;0.77;0.63;;;10.00;99.90;;;;;;5022452;28;20458;-90
2021/12/28 08:30:01;;;;;;;0.90;0.47;;;10.00;99.90;;;;;;5031938;28;20653;-89
2021/12/28 08:32:28;;;;;;;1.47;0.77;;;9.90;99.90;;;;;;5029967;28;20487;-90
2021/12/28 08:34:54;;;;;;;0.77;0.60;;;9.90;99.90;;;;;;5041699;28;20461;-90
2021/12/28 08:37:22;;;;;;;0.80;0.50;;;9.80;99.90;;;;;;5037458;28;20451;-90
2021/12/28 08:39:50;;;;;;;0.60;0.60;;;9.90;99.90;;;;;;5040277;28;20450;-89
2021/12/28 08:42:19;;;;;;;1.03;0.60;;;9.90;99.90;;;;;;5026049;28;20802;-91
2021/12/28 08:44:46;;;;;;;0.70;0.50;;;9.80;99.90;;;;;;5024786;28;20480;-92
2021/12/28 08:47:13;;;;;;;0.70;0.60;;;10.00;99.90;;;;;;5023819;28;20454;-90
2021/12/28 08:49:40;;;;;;;0.60;0.50;;;10.00;99.90;;;;;;5030312;28;20446;-92
2021/12/28 08:52:07;;;;;;;0.80;0.57;;;10.10;99.90;;;;;;5032270;28;20442;-92
2021/12/28 08:54:35;;;;;;;0.90;0.50;;;10.20;99.90;;;;;;5032330;28;20449;-93
2021/12/28 08:57:02;;;;;;;0.80;0.47;;;10.30;99.90;;;;;;5018738;28;20517;-92
2021/12/28 08:59:30;;;;;;;1.70;0.60;;;10.40;99.90;;;;;;5032819;28;20460;-91
2021/12/28 09:01:57;;;;;;;0.90;0.50;;;10.40;99.90;;;;;;5028103;28;20525;-92
2021/12/28 09:04:24;;;;;;;0.67;0.47;;;10.50;99.90;;;;;;5032728;28;20444;-92
2021/12/28 09:06:51;;;;;;;0.80;0.53;;;10.60;99.90;;;;;;5025417;28;21013;-91
2021/12/28 09:09:17;;;;;;;0.50;0.50;;;10.70;99.90;;;;;;5026186;28;20533;-92
2021/12/28 09:11:45;;;;;;;0.90;0.40;;;10.80;99.90;;;;;;5033179;28;20432;-92
2021/12/28 09:14:12;;;;;;;1.00;0.50;;;10.90;99.90;;;;;;5044793;28;20502;-88
2021/12/28 09:16:40;;;;;;;1.43;0.60;;;11.00;99.90;;;;;;5031794;28;20462;-89
2021/12/28 09:19:07;;;;;;;0.67;0.47;;;11.00;99.90;;;;;;5035395;28;20438;-91
2021/12/28 09:21:34;;;;;;;0.67;0.60;;;11.00;99.90;;;;;;5024171;28;20454;-90
2021/12/28 09:24:01;;;;;;;0.80;0.60;;;11.00;99.90;;;;;;5018969;28;20443;-90
2021/12/28 09:26:28;;;;;;;1.73;1.33;;;11.20;99.90;;;;;;5036415;28;20457;-91
2021/12/28 09:28:55;;;;;;;0.70;0.60;;;11.40;99.90;;;;;;5033439;28;20839;-91
2021/12/28 09:31:21;;;;;;;0.63;0.40;;;11.60;99.90;;;;;;5034966;28;20802;-90
2021/12/28 09:33:50;;;;;;;0.67;0.40;;;11.70;99.90;;;;;;5035913;28;20450;-90
2021/12/28 09:36:17;;;;;;;0.70;0.53;;;11.80;99.90;;;;;;5033069;28;20534;-91
2021/12/28 09:38:46;;;;;;;1.63;0.70;;;11.90;99.90;;;;;;5033702;28;21004;-91
2021/12/28 09:41:14;;;;;;;2.00;1.67;;;11.80;99.90;;;;;;5031646;28;20443;-81
2021/12/28 09:43:42;;;;;;;0.97;0.60;;;11.80;99.90;;;;;;5030806;28;20441;-81
2021/12/28 09:46:09;;;;;;;0.70;0.40;;;11.70;99.90;;;;;;5030245;28;20529;-81
2021/12/28 09:48:36;;;;;;;1.13;0.60;;;11.70;99.90;;;;;;5028542;28;20455;-81
2021/12/28 09:51:05;;;;;;;0.80;0.60;;;11.60;99.90;;;;;;5026378;28;20800;-82
2021/12/28 09:53:32;;;;;;;1.03;0.80;;;11.60;99.90;;;;;;5025691;28;20500;-82
2021/12/28 09:55:59;;;;;;;1.10;0.67;;;11.60;99.90;;;;;;5029070;28;20459;-89
2021/12/28 09:58:27;;;;;;;0.60;0.50;;;11.60;99.90;;;;;;5025895;28;20451;-89
2021/12/28 10:00:53;;;;;;;0.70;0.53;;;11.60;99.90;;;;;;5035984;28;20468;-90
2021/12/28 10:03:23;;;;;;;1.53;0.53;;;11.70;99.90;;;;;;5024737;28;20449;-90
2021/12/28 10:05:50;;;;;;;0.90;0.60;;;11.70;99.90;;;;;;5022842;28;20454;-91
2021/12/28 10:08:24;;;;;;;2.10;0.70;;;11.80;99.90;;;;;;5028743;28;20935;-89
2021/12/28 10:10:53;;;;;;;1.10;1.00;;;11.90;99.90;;;;;;5023744;28;20445;-90
2021/12/28 10:13:22;;;;;;;1.00;0.60;;;11.90;99.90;;;;;;5031751;28;20469;-90
2021/12/28 10:15:51;;;;;;;0.73;0.50;;;12.00;99.90;;;;;;5036852;28;20448;-91
2021/12/28 10:18:18;;;;;;;0.80;0.50;;;12.10;99.90;;;;;;5036545;28;20445;-91
2021/12/28 10:20:49;;;;;;;1.27;0.77;;;12.30;99.90;;;;;;5036506;28;20434;-90
2021/12/28 10:23:21;;;;;;;0.83;0.83;;;12.50;99.90;;;;;;5044008;28;20438;-90
2021/12/28 10:25:50;;;;;;;0.83;0.73;;;13.00;99.90;;;;;;5034038;28;20553;-91
2021/12/28 10:28:19;;;;;;;1.00;0.70;;;13.50;99.90;;;;;;5037483;28;20487;-90
2021/12/28 10:30:48;;;;;;;2.60;0.70;;;13.80;99.90;;;;;;5029320;28;20440;-92
2021/12/28 10:33:17;;;;;;;0.90;0.63;;;14.50;99.90;;;;;;5038125;28;21011;-90
2021/12/28 10:35:49;;;;;;;1.03;0.80;;;16.10;99.90;;;;;;5032999;28;20455;-91
2021/12/28 10:38:27;;;;;;;1.10;0.60;;;16.00;99.90;;;;;;5035704;28;20425;-91
2021/12/28 10:40:58;;;;;;;0.70;0.60;;;15.10;99.90;;;;;;5028571;28;20442;-90
2021/12/28 10:43:26;;;;;;;0.80;0.80;;;14.50;99.90;;;;;;5036093;28;20442;-90
2021/12/28 10:46:00;;;;;;;0.67;0.57;;;14.80;99.90;;;;;;5038660;28;20476;-90
2021/12/28 10:49:00;;;;;;;1.13;0.53;;;14.50;99.90;;;;;;5038013;28;20480;-90
2021/12/28 10:51:31;;;;;;;0.73;0.57;;;14.30;99.90;;;;;;5037863;28;20508;-91
2021/12/28 10:54:11;;;;;;;1.77;1.23;;;15.40;99.90;;;;;;5046957;28;20465;-91
2021/12/28 10:56:50;;;;;;;1.97;1.40;;;16.40;99.90;;;;;;5049431;28;20458;-92
2021/12/28 10:59:23;;;;;;;1.10;1.00;;;15.60;99.90;;;;;;5032789;28;20455;-90
2021/12/28 11:02:07;;;;;;;1.53;1.07;;;14.90;99.90;;;;;;5028948;28;20488;-89
2021/12/28 11:04:35;;;;;;;0.60;0.50;;;14.80;99.90;;;;;;5037864;28;20456;-94
2021/12/28 11:07:06;;;;;;;0.60;0.50;;;15.10;99.90;;;;;;5035169;28;20459;-90
2021/12/28 11:09:34;;;;;;;1.10;0.50;;;15.20;99.90;;;;;;5042486;28;20452;-91
2021/12/28 11:12:03;;;;;;;0.60;0.50;;;15.30;99.90;;;;;;5044718;28;20822;-90
2021/12/28 11:14:32;;;;;;;1.10;0.70;;;15.10;99.90;;;;;;5045379;28;20473;-90
2021/12/28 11:17:01;;;;;;;0.67;0.53;;;14.80;99.90;;;;;;5037458;28;20493;-91
2021/12/28 11:19:34;;;;;;;0.60;0.43;;;15.50;99.90;;;;;;5023151;28;20464;-90
2021/12/28 11:22:05;;;;;;;0.70;0.40;;;16.40;99.90;;;;;;5031732;28;20532;-90
2021/12/28 11:24:39;;;;;;;0.80;0.50;;;17.20;99.90;;;;;;5027395;28;20457;-90
2021/12/28 11:27:24;;;;;;;0.67;0.50;;;18.10;99.90;;;;;;5022850;28;20980;-91
2021/12/28 11:29:51;;;;;;;0.90;0.60;;;17.20;99.90;;;;;;5026143;28;20445;-90
2021/12/28 11:32:20;;;;;;;1.00;0.80;;;17.20;99.90;;;;;;5037883;28;20449;-89
2021/12/28 11:34:47;;;;;;;0.80;0.60;;;17.20;99.90;;;;;;5041299;28;20477;-87
2021/12/28 11:37:17;;;;;;;3.40;0.40;;;17.70;99.90;;;;;;5030697;28;20453;-88
2021/12/28 11:39:48;;;;;;;1.00;0.70;;;17.20;99.90;;;;;;5029572;28;20589;-89
2021/12/28 11:42:16;;;;;;;0.70;0.60;;;16.50;99.90;;;;;;5034173;28;20441;-88
2021/12/28 11:44:43;;;;;;;1.40;0.60;;;16.30;99.90;;;;;;5032963;28;20444;-90
2021/12/28 11:47:33;;;;;;;1.10;0.60;;;16.90;99.90;;;;;;5038739;28;20526;-88
2021/12/28 11:50:00;;;;;;;1.10;0.63;;;17.10;99.90;;;;;;5023501;28;21053;-88
2021/12/28 11:52:28;;;;;;;1.20;0.80;;;16.60;99.90;;;;;;5020721;28;20829;-88
2021/12/28 11:54:57;;;;;;;3.50;0.70;;;15.90;99.90;;;;;;5033624;28;20487;-87
2021/12/28 11:57:26;;;;;;;1.27;0.70;;;15.50;99.90;;;;;;5028770;28;20469;-90
2021/12/28 11:59:55;;;;;;;1.30;0.87;;;15.30;99.90;;;;;;5040577;28;20867;-89
2021/12/28 12:02:36;;;;;;;1.57;0.60;;;15.10;99.90;;;;;;5022674;28;20441;-89
2021/12/28 12:05:17;;;;;;;0.90;0.60;;;14.80;99.90;;;;;;5024494;28;20516;-93
2021/12/28 12:07:44;;;;;;;1.07;0.60;;;14.40;99.90;;;;;;5032048;28;20503;-88
2021/12/28 12:10:31;;;;;;;1.90;0.67;;;14.30;99.90;;;;;;5022408;28;20535;-88
2021/12/28 12:13:08;;;;;;;1.03;0.63;;;14.10;99.90;;;;;;5023905;28;20514;-89
2021/12/28 12:15:40;;;;;;;1.13;1.00;;;13.80;99.90;;;;;;5033972;28;20529;-87
2021/12/28 12:18:11;;;;;;;2.20;0.77;;;13.70;99.90;;;;;;5029465;28;20449;-87
2021/12/28 12:20:39;;;;;;;2.20;0.83;;;13.60;99.90;;;;;;5033738;28;20459;-89
2021/12/28 12:23:18;;;;;;;1.10;1.00;;;13.50;99.90;;;;;;5040179;28;20450;-89
2021/12/28 12:25:58;;;;;;;0.90;0.60;;;13.30;99.90;;;;;;5030273;28;20464;-88
2021/12/28 12:28:49;;;;;;;1.27;0.67;;;13.20;99.90;;;;;;5033760;28;20451;-89
2021/12/28 12:31:26;;;;;;;1.37;0.50;;;13.20;99.90;;;;;;5027594;28;20449;-88
2021/12/28 12:33:56;;;;;;;1.33;0.70;;;13.20;99.90;;;;;;5029840;28;20553;-89
2021/12/28 12:36:30;;;;;;;1.00;0.67;;;13.20;99.90;;;;;;5024354;28;20493;-88
2021/12/28 12:38:58;;;;;;;2.10;0.60;;;13.10;99.90;;;;;;5033350;28;20531;-89
2021/12/28 12:41:55;;;;;;;1.80;0.63;;;13.10;99.90;;;;;;5035470;28;20462;-89
2021/12/28 12:44:24;;;;;;;1.20;0.70;;;13.10;99.90;;;;;;5032935;28;20514;-89
2021/12/28 12:46:53;;;;;;;1.27;0.67;;;13.30;99.90;;;;;;5034329;28;20461;-89
2021/12/28 12:49:26;;;;;;;0.80;0.80;;;13.30;99.90;;;;;;5026593;28;20462;-90
2021/12/28 12:51:56;;;;;;;1.10;0.87;;;13.30;99.90;;;;;;5045048;28;20480;-88
2021/12/28 12:54:39;;;;;;;1.27;0.90;;;13.40;99.90;;;;;;5037862;28;20480;-90
2021/12/28 12:57:11;;;;;;;2.17;1.07;;;13.30;99.90;;;;;;5047845;28;20435;-90
2021/12/28 12:59:57;;;;;;;2.20;1.30;;;13.30;99.90;;;;;;5037075;28;20442;-89
2021/12/28 13:02:31;;;;;;;1.00;0.87;;;13.20;99.90;;;;;;5043756;28;20448;-88
2021/12/28 13:05:01;;;;;;;1.73;1.40;;;13.30;99.90;;;;;;5041403;28;20469;-87
2021/12/28 13:07:31;;;;;;;1.87;0.80;;;13.30;99.90;;;;;;5038544;28;20470;-88
2021/12/28 13:10:08;;;;;;;1.40;0.97;;;13.30;99.90;;;;;;5039582;28;20443;-88
2021/12/28 13:12:59;;;;;;;1.20;0.80;;;13.20;99.90;;;;;;5039149;28;20480;-92
2021/12/28 13:15:47;;;;;;;1.33;0.90;;;13.30;99.90;;;;;;5039773;28;20577;-92
2021/12/28 13:18:17;;;;;;;1.67;0.87;;;13.30;99.90;;;;;;5056438;28;20444;-92
2021/12/28 13:20:47;;;;;;;0.70;0.70;;;13.30;99.90;;;;;;5040977;28;20467;-93
2021/12/28 13:23:14;;;;;;;1.77;0.93;;;13.30;99.90;;;;;;5024639;28;20464;-90
2021/12/28 13:25:45;;;;;;;1.93;1.00;;;13.30;99.90;;;;;;5023230;28;20505;-92
2021/12/28 13:28:18;;;;;;;1.37;1.27;;;13.20;99.90;;;;;;5030500;28;20470;-91
2021/12/28 13:30:49;;;;;;;1.50;0.90;;;13.20;99.90;;;;;;5025189;28;20458;-93
2021/12/28 13:33:24;;;;;;;1.73;1.23;;;13.30;99.90;;;;;;5034208;28;20500;-92
2021/12/28 13:35:53;;;;;;;0.70;0.60;;;13.30;99.90;;;;;;5030852;28;21046;-91
2021/12/28 13:38:22;;;;;;;1.20;0.70;;;13.30;99.90;;;;;;5027349;28;20516;-93
2021/12/28 13:40:53;;;;;;;1.57;1.00;;;13.30;99.90;;;;;;5027628;28;20453;-93
2021/12/28 13:43:28;;;;;;;1.10;0.93;;;13.30;99.90;;;;;;5029126;28;20464;-91
2021/12/28 13:45:58;;;;;;;1.47;1.10;;;13.30;99.90;;;;;;5021535;28;20469;-92
2021/12/28 13:48:27;;;;;;;0.90;0.70;;;13.20;99.90;;;;;;5021522;28;20456;-91
2021/12/28 13:50:57;;;;;;;1.60;0.70;;;13.20;99.90;;;;;;5023451;28;20448;-92
2021/12/28 13:53:30;;;;;;;1.60;1.00;;;13.20;99.90;;;;;;5020832;28;20483;-93
2021/12/28 13:56:00;;;;;;;0.67;0.67;;;13.20;99.90;;;;;;5020619;28;20475;-92
2021/12/28 13:58:31;;;;;;;1.53;0.80;;;13.20;99.90;;;;;;5019264;28;20518;-87
2021/12/28 14:01:01;;;;;;;1.70;0.90;;;13.20;99.90;;;;;;5017965;28;20444;-86
2021/12/28 14:03:29;;;;;;;2.90;0.80;;;13.20;99.90;;;;;;5033058;28;20451;-91
2021/12/28 14:05:57;;;;;;;1.67;1.00;;;13.20;99.90;;;;;;5034394;28;20459;-93
2021/12/28 14:08:25;;;;;;;1.00;0.80;;;13.20;99.90;;;;;;5039255;28;20531;-92
2021/12/28 14:10:56;;;;;;;1.00;0.90;;;13.20;99.90;;;;;;5034854;28;20464;-92
2021/12/28 14:13:24;;;;;;;1.50;0.90;;;13.10;99.90;;;;;;5037859;28;20424;-92
2021/12/28 14:16:02;;;;;;;6.70;1.23;;;13.10;99.90;;;;;;5031756;28;20595;-92
2021/12/28 14:18:36;;;;;;;2.10;1.00;;;13.00;99.90;;;;;;5023198;28;20462;-93
2021/12/28 14:21:14;;;;;;;1.93;0.97;;;13.00;99.90;;;;;;5021908;28;20469;-93
2021/12/28 14:23:43;;;;;;;2.63;0.87;;;12.90;99.90;;;;;;5020894;28;20554;-93
2021/12/28 14:26:14;;;;;;;1.50;0.90;;;12.90;99.90;;;;;;5022454;28;20499;-93
2021/12/28 14:28:43;;;;;;;1.87;0.97;;;12.90;99.90;;;;;;5029783;28;20504;-94
2021/12/28 14:31:14;;;;;;;2.60;1.30;;;12.90;99.90;;;;;;5029226;28;20555;-91
2021/12/28 14:33:50;;;;;;;4.30;1.33;;;12.90;99.90;;;;;;5020116;28;20462;-91
2021/12/28 14:36:18;;;;;;;1.47;1.20;;;12.90;99.90;;;;;;5020507;28;20472;-90
2021/12/28 14:38:49;;;;;;;3.30;1.10;;;12.90;99.90;;;;;;5035671;28;20511;-91
2021/12/28 14:41:27;;;;;;;3.70;1.43;;;12.90;99.90;;;;;;5032433;28;20456;-92
2021/12/28 14:44:17;;;;;;;3.53;1.03;;;12.90;99.90;;;;;;5031330;28;20484;-93
2021/12/28 14:46:48;;;;;;;2.10;1.50;;;12.90;99.90;;;;;;5025024;28;20555;-91
2021/12/28 14:49:34;;;;;;;6.00;1.67;;;12.80;99.90;;;;;;5037958;28;20467;-91
2021/12/28 14:52:17;;;;;;;4.77;1.53;;;12.70;99.90;;;;;;5026279;28;20458;-93
2021/12/28 14:54:55;;;;;;;1.60;1.07;;;12.60;99.90;;;;;;5021921;28;20564;-93
2021/12/28 14:57:23;;;;;;;4.67;1.40;;;12.50;99.90;;;;;;5021192;28;20453;-93
2021/12/28 14:59:51;;;;;;;2.50;1.33;;;12.40;99.90;;;;;;5026928;28;20438;-92
2021/12/28 15:02:21;;;;;;;2.80;1.90;;;12.20;99.90;;;;;;5022468;28;20463;-92
2021/12/28 15:04:52;;;;;;;3.03;1.77;;;12.10;99.90;;;;;;5019273;28;21037;-91
2021/12/28 15:07:21;;;;;;;4.30;2.40;;;12.00;99.90;;;;;;5020436;28;20453;-91
2021/12/28 15:09:51;;;;;;;5.83;2.40;;;12.00;99.90;;;;;;5027689;28;20516;-91
2021/12/28 15:12:18;;;;;;;4.67;2.80;;;12.00;99.90;;;;;;5025834;28;20783;-91
2021/12/28 15:14:46;;;;;;;9.50;4.00;;;12.00;99.90;;;;;;5023488;28;21017;-91
2021/12/28 15:17:15;;;;;;;4.40;3.30;;;11.90;99.90;;;;;;5021102;28;20455;-93
2021/12/28 15:19:45;;;;;;;3.00;2.23;;;11.80;99.90;;;;;;5024039;28;20466;-92
2021/12/28 15:22:12;;;;;;;2.40;1.60;;;11.90;99.90;;;;;;5033581;28;20445;-92
2021/12/28 15:24:41;;;;;;;5.33;2.10;;;11.70;99.90;;;;;;5026426;28;20439;-93
2021/12/28 15:27:10;;;;;;;2.70;1.43;;;11.40;99.90;;;;;;5027495;28;20793;-93
2021/12/28 15:29:41;;;;;;;6.07;1.30;;;11.10;99.90;;;;;;5021676;28;20458;-93
2021/12/28 15:32:09;;;;;;;6.30;2.00;;;10.80;99.90;;;;;;5031438;28;20451;-92
2021/12/28 15:34:36;;;;;;;2.80;1.30;;;10.60;99.90;;;;;;5042207;28;20485;-90
2021/12/28 15:37:04;;;;;;;5.40;2.03;;;10.50;99.90;;;;;;5049625;28;20434;-91
2021/12/28 15:39:32;;;;;;;6.50;2.77;;;10.40;99.90;;;;;;5048507;28;20448;-90
2021/12/28 15:41:59;;;;;;;3.20;1.10;;;10.30;99.90;;;;;;5039212;28;20452;-93
2021/12/28 15:44:27;;;;;;;4.17;2.13;;;10.20;99.90;;;;;;5041440;28;20505;-92
2021/12/28 15:46:54;;;;;;;3.83;2.17;;;10.20;99.90;;;;;;5037813;28;20466;-93
2021/12/28 15:49:22;;;;;;;9.33;4.43;;;10.10;99.90;;;;;;5039907;28;20515;-92
2021/12/28 15:51:50;;;;;;;8.10;2.90;;;10.00;99.90;;;;;;5037987;28;20434;-91
2021/12/28 15:54:19;;;;;;;11.97;5.13;;;9.90;99.90;;;;;;5034480;28;20811;-91
2021/12/28 15:56:48;;;;;;;12.30;5.93;;;9.80;99.90;;;;;;5030149;28;20985;-93
2021/12/28 15:59:16;;;;;;;9.97;3.30;;;9.70;99.90;;;;;;5043857;28;20446;-93
2021/12/28 16:01:44;;;;;;;10.60;4.23;;;9.60;99.90;;;;;;5031634;28;20518;-93
2021/12/28 16:04:11;;;;;;;7.33;3.73;;;9.50;99.90;;;;;;5039537;28;20452;-92